createdAt,value
2023-01-21T00:02:23.359Z,8.70
2023-01-21T00:05:24.479Z,8.88
2023-01-21T00:08:26.760Z,10.00
2023-01-21T00:11:27.759Z,9.15
2023-01-21T00:14:30.151Z,9.73
2023-01-21T00:17:35.502Z,9.18
2023-01-21T00:20:36.883Z,9.98
2023-01-21T00:23:37.737Z,9.80
2023-01-21T00:26:38.734Z,9.57
2023-01-21T00:29:39.481Z,9.05
2023-01-21T00:32:40.734Z,9.98
2023-01-21T00:35:42.389Z,9.43
2023-01-21T00:38:43.780Z,9.52
2023-01-21T00:41:44.596Z,9.05
2023-01-21T00:44:45.319Z,9.40
2023-01-21T00:47:47.374Z,8.55
2023-01-21T00:50:48.567Z,8.82
2023-01-21T00:53:49.764Z,9.23
2023-01-21T00:56:51.211Z,9.45
2023-01-21T00:59:53.653Z,9.23
2023-01-21T01:02:54.696Z,8.90
2023-01-21T01:05:55.751Z,9.90
2023-01-21T01:08:58.726Z,8.60
2023-01-21T01:12:00.196Z,8.40
2023-01-21T01:15:01.182Z,9.95
2023-01-21T01:18:02.293Z,9.25
2023-01-21T01:21:04.817Z,9.75
2023-01-21T01:24:06.546Z,9.98
2023-01-21T01:27:07.744Z,9.82
2023-01-21T01:30:09.832Z,10.40
2023-01-21T01:33:10.448Z,10.27
2023-01-21T01:36:16.101Z,10.65
2023-01-21T01:39:17.089Z,10.57
2023-01-21T01:42:18.341Z,10.15
2023-01-21T01:45:21.685Z,10.07
2023-01-21T01:48:32.758Z,10.63
2023-01-21T01:51:54.726Z,9.45
2023-01-21T01:55:00.666Z,9.55
2023-01-21T01:58:06.274Z,10.90
2023-01-21T02:01:07.421Z,9.52
2023-01-21T02:04:17.455Z,10.57
2023-01-21T02:07:24.718Z,9.98
2023-01-21T02:10:25.585Z,10.32
2023-01-21T02:13:30.767Z,12.43
2023-01-21T02:16:59.424Z,11.00
2023-01-21T02:20:40.587Z,10.18
2023-01-21T02:24:12.688Z,10.40
2023-01-21T02:27:32.949Z,9.90
2023-01-21T02:30:58.295Z,10.38
2023-01-21T02:34:26.879Z,9.75
2023-01-21T02:37:46.297Z,11.07
2023-01-21T02:40:57.133Z,10.10
2023-01-21T02:44:28.013Z,10.52
2023-01-21T02:47:51.180Z,11.57
2023-01-21T02:50:54.791Z,10.50
2023-01-21T02:53:55.872Z,11.45
2023-01-21T02:56:57.244Z,12.05
2023-01-21T03:00:01.833Z,12.50
2023-01-21T03:03:08.813Z,12.50
2023-01-21T03:06:37.182Z,12.95
2023-01-21T03:09:37.981Z,15.23
2023-01-21T03:12:56.036Z,17.42
2023-01-21T03:16:17.329Z,17.58
2023-01-21T03:19:23.450Z,17.65
2023-01-21T03:22:32.347Z,16.17
2023-01-21T03:25:35.326Z,16.75
2023-01-21T03:28:47.038Z,18.33
2023-01-21T03:31:55.111Z,19.77
2023-01-21T03:34:59.245Z,19.95
2023-01-21T03:38:24.796Z,22.63
2023-01-21T03:41:34.193Z,23.02
2023-01-21T03:44:36.039Z,24.60
2023-01-21T03:47:39.392Z,23.73
2023-01-21T03:50:52.109Z,24.73
2023-01-21T03:53:58.704Z,20.58
2023-01-21T03:56:59.736Z,22.77
2023-01-21T04:00:01.055Z,24.67
2023-01-21T04:03:02.298Z,25.48
2023-01-21T04:06:03.517Z,25.92
2023-01-21T04:09:06.574Z,29.25
2023-01-21T04:12:07.577Z,28.17
2023-01-21T04:15:09.614Z,29.58
2023-01-21T04:18:10.523Z,28.75
2023-01-21T04:21:11.439Z,26.80
2023-01-21T04:24:12.943Z,28.20
2023-01-21T04:27:13.836Z,27.75
2023-01-21T04:30:15.204Z,30.15
2023-01-21T04:33:17.590Z,28.55
2023-01-21T04:36:18.708Z,28.25
2023-01-21T04:39:19.664Z,28.65
2023-01-21T04:42:20.407Z,27.58
2023-01-21T04:45:21.696Z,27.90
2023-01-21T04:48:22.618Z,28.42
2023-01-21T04:51:23.363Z,25.63
2023-01-21T04:54:24.171Z,24.13
2023-01-21T04:57:24.869Z,22.33
2023-01-21T05:00:25.942Z,19.65
2023-01-21T05:03:27.965Z,21.40
2023-01-21T05:06:28.798Z,23.63
2023-01-21T05:09:29.644Z,23.17
2023-01-21T05:12:30.780Z,25.60
2023-01-21T05:15:32.299Z,25.45
2023-01-21T05:18:33.257Z,28.05
2023-01-21T05:21:34.013Z,26.98
2023-01-21T05:24:34.900Z,27.83
2023-01-21T05:27:35.799Z,30.15
2023-01-21T05:30:39.910Z,29.42
2023-01-21T05:33:44.099Z,29.85
2023-01-21T05:36:45.379Z,30.10
2023-01-21T05:39:46.095Z,30.85
2023-01-21T05:42:47.440Z,28.92
2023-01-21T05:45:48.421Z,29.60
2023-01-21T05:48:49.856Z,28.58
2023-01-21T05:51:50.446Z,30.27
2023-01-21T05:55:01.305Z,30.88
2023-01-21T05:58:03.665Z,29.98
2023-01-21T06:01:04.581Z,30.17
2023-01-21T06:04:05.653Z,32.25
2023-01-21T06:07:06.756Z,32.95
2023-01-21T06:10:08.598Z,30.15
2023-01-21T06:13:12.988Z,31.35
2023-01-21T06:16:13.996Z,31.17
2023-01-21T06:19:14.909Z,28.90
2023-01-21T06:22:16.922Z,29.73
2023-01-21T06:25:18.188Z,29.80
2023-01-21T06:28:18.980Z,31.75
2023-01-21T06:31:19.973Z,31.13
2023-01-21T06:34:21.108Z,34.28
2023-01-21T06:37:21.847Z,32.70
2023-01-21T06:40:22.677Z,33.35
2023-01-21T06:43:23.496Z,33.38
2023-01-21T06:46:24.940Z,31.88
2023-01-21T06:49:26.148Z,30.95
2023-01-21T06:52:27.266Z,30.90
2023-01-21T06:55:28.455Z,29.83
2023-01-21T06:58:29.307Z,31.13
2023-01-21T07:01:32.559Z,32.05
2023-01-21T07:04:34.085Z,31.63
2023-01-21T07:07:34.754Z,30.13
2023-01-21T07:10:35.632Z,33.92
2023-01-21T07:13:36.514Z,31.88
2023-01-21T07:16:37.959Z,31.02
2023-01-21T07:19:38.858Z,30.50
2023-01-21T07:22:40.083Z,31.52
2023-01-21T07:25:41.264Z,29.42
2023-01-21T07:28:41.949Z,29.98
2023-01-21T07:31:44.268Z,31.00
2023-01-21T07:34:45.298Z,29.90
2023-01-21T07:37:46.422Z,30.02
2023-01-21T07:40:51.451Z,29.23
2023-01-21T07:43:52.339Z,31.60
2023-01-21T07:46:53.383Z,31.17
2023-01-21T07:49:54.346Z,30.13
2023-01-21T07:52:55.396Z,30.80
2023-01-21T07:55:56.223Z,29.33
2023-01-21T07:58:57.468Z,30.88
2023-01-21T08:01:58.227Z,29.25
2023-01-21T08:04:59.710Z,29.77
2023-01-21T08:08:00.540Z,30.27
2023-01-21T08:11:01.475Z,29.35
2023-01-21T08:14:02.511Z,28.23
2023-01-21T08:17:03.087Z,28.02
2023-01-21T08:20:04.814Z,29.05
2023-01-21T08:23:05.451Z,29.10
2023-01-21T08:26:07.737Z,28.00
2023-01-21T08:29:08.788Z,29.98
2023-01-21T08:32:09.940Z,29.10
2023-01-21T08:35:10.884Z,29.17
2023-01-21T08:38:11.600Z,29.00
2023-01-21T08:41:13.049Z,30.35
2023-01-21T08:44:13.765Z,30.50
2023-01-21T08:47:14.420Z,30.25
2023-01-21T08:50:16.116Z,31.38
2023-01-21T08:53:17.196Z,27.95
2023-01-21T08:56:19.437Z,27.83
2023-01-21T08:59:28.102Z,29.83
2023-01-21T09:02:29.165Z,28.42
2023-01-21T09:05:30.260Z,28.48
2023-01-21T09:08:32.307Z,27.17
2023-01-21T09:11:34.170Z,26.05
2023-01-21T09:14:35.216Z,25.67
2023-01-21T09:17:38.516Z,24.88
2023-01-21T09:20:40.435Z,23.33
2023-01-21T09:23:42.005Z,27.02
2023-01-21T09:26:44.239Z,24.92
2023-01-21T09:29:45.674Z,23.38
2023-01-21T09:32:46.915Z,24.40
2023-01-21T09:35:57.721Z,24.88
2023-01-21T09:38:58.924Z,24.83
2023-01-21T09:41:59.840Z,23.83
2023-01-21T09:45:02.947Z,23.30
2023-01-21T09:48:07.816Z,23.27
2023-01-21T09:51:22.542Z,22.02
2023-01-21T09:54:34.102Z,19.92
2023-01-21T09:58:19.694Z,18.95
2023-01-21T10:01:32.574Z,18.98
2023-01-21T10:04:55.500Z,16.42
2023-01-21T10:08:54.234Z,15.55
2023-01-21T10:12:13.991Z,16.50
2023-01-21T10:15:41.445Z,16.58
2023-01-21T10:21:55.954Z,15.07
2023-01-21T10:25:15.685Z,14.98
2023-01-21T10:28:24.203Z,16.35
2023-01-21T10:31:29.034Z,14.23
2023-01-21T10:34:32.548Z,14.25
2023-01-21T10:37:48.263Z,16.13
2023-01-21T10:41:14.048Z,15.80
2023-01-21T10:44:39.130Z,15.25
2023-01-21T10:48:12.323Z,15.02
2023-01-21T10:51:35.267Z,14.63
2023-01-21T10:54:50.237Z,13.75
2023-01-21T10:58:11.551Z,13.18
2023-01-21T11:01:27.853Z,13.23
2023-01-21T11:04:29.293Z,13.20
2023-01-21T11:07:42.402Z,13.90
2023-01-21T11:10:45.551Z,14.40
2023-01-21T11:13:46.564Z,13.00
2023-01-21T11:16:50.557Z,13.95
2023-01-21T11:20:00.865Z,14.05
2023-01-21T11:23:06.413Z,13.82
2023-01-21T11:26:23.832Z,14.80
2023-01-21T11:29:26.861Z,13.93
2023-01-21T11:32:30.885Z,13.95
2023-01-21T11:35:31.931Z,11.60
2023-01-21T11:38:35.770Z,14.40
2023-01-21T11:41:37.194Z,14.77
2023-01-21T11:44:53.978Z,15.10
2023-01-21T11:47:56.103Z,13.70
2023-01-21T11:51:07.591Z,15.77
2023-01-21T11:54:13.432Z,15.45
2023-01-21T11:57:25.925Z,13.02
2023-01-21T12:00:28.032Z,17.40
2023-01-21T12:03:53.930Z,16.30
2023-01-21T12:07:00.549Z,15.52
2023-01-21T12:10:28.148Z,12.20
2023-01-21T12:13:50.911Z,15.60
2023-01-21T12:17:23.693Z,14.57
2023-01-21T12:21:09.077Z,15.30
2023-01-21T12:24:50.072Z,13.48
2023-01-21T12:28:06.310Z,16.20
2023-01-21T12:31:25.208Z,17.52
2023-01-21T12:34:45.410Z,16.90
2023-01-21T12:38:00.667Z,17.13
2023-01-21T12:41:24.726Z,17.02
2023-01-21T12:44:50.973Z,16.63
2023-01-21T12:48:03.467Z,15.85
2023-01-21T12:51:41.276Z,16.02
2023-01-21T12:55:16.390Z,15.75
2023-01-21T12:58:25.358Z,15.95
2023-01-21T13:02:12.181Z,16.50
2023-01-21T13:05:36.546Z,14.98
2023-01-21T13:08:49.567Z,16.52
2023-01-21T13:11:58.567Z,15.32
2023-01-21T13:15:22.255Z,16.17
2023-01-21T13:18:32.699Z,15.65
2023-01-21T13:22:06.713Z,12.95
2023-01-21T13:25:39.897Z,13.88
2023-01-21T13:29:25.487Z,13.18
2023-01-21T13:32:35.636Z,11.88
2023-01-21T13:36:00.746Z,13.13
2023-01-21T13:39:24.449Z,12.70
2023-01-21T13:42:31.038Z,12.15
2023-01-21T13:46:20.740Z,12.23
2023-01-21T13:50:15.563Z,11.73
2023-01-21T13:53:56.427Z,11.82
2023-01-21T13:58:02.376Z,11.15
2023-01-21T14:01:14.711Z,11.35
2023-01-21T14:04:53.911Z,10.73
2023-01-21T14:08:10.077Z,11.20
2023-01-21T14:11:28.249Z,12.48
2023-01-21T14:15:14.956Z,12.73
2023-01-21T14:21:51.278Z,12.00
2023-01-21T14:25:28.680Z,13.38
2023-01-21T14:28:41.560Z,13.23
2023-01-21T14:31:56.373Z,12.38
2023-01-21T14:35:06.405Z,12.90
2023-01-21T14:38:50.887Z,12.63
2023-01-21T14:42:05.009Z,12.38
2023-01-21T14:45:08.503Z,12.30
2023-01-21T14:48:40.424Z,13.00
2023-01-21T14:51:50.033Z,13.80
2023-01-21T14:54:50.784Z,12.90
2023-01-21T14:57:53.466Z,12.73
2023-01-21T15:00:54.345Z,12.25
2023-01-21T15:03:58.562Z,14.20
2023-01-21T15:07:13.870Z,12.52
2023-01-21T15:10:35.422Z,12.77
2023-01-21T15:13:39.950Z,12.65
2023-01-21T15:16:43.705Z,11.52
2023-01-21T15:19:44.920Z,11.68
2023-01-21T15:22:48.982Z,12.23
2023-01-21T15:26:08.387Z,12.45
2023-01-21T15:29:33.731Z,13.13
2023-01-21T15:32:35.406Z,11.93
2023-01-21T15:35:41.730Z,12.25
2023-01-21T15:38:42.972Z,12.70
2023-01-21T15:41:57.912Z,12.82
2023-01-21T15:45:23.858Z,13.52
2023-01-21T15:48:54.913Z,13.32
2023-01-21T15:52:29.243Z,13.52
2023-01-21T15:56:13.947Z,12.95
2023-01-21T15:59:44.571Z,12.70
2023-01-21T16:02:59.264Z,12.75
2023-01-21T16:06:53.693Z,13.80
2023-01-21T16:10:20.408Z,15.02
2023-01-21T16:13:53.420Z,14.15
2023-01-21T16:17:41.165Z,14.23
2023-01-21T16:20:47.386Z,14.85
2023-01-21T16:23:53.160Z,14.77
2023-01-21T16:26:54.238Z,13.65
2023-01-21T16:30:01.197Z,14.85
2023-01-21T16:33:15.971Z,13.27
2023-01-21T16:36:17.091Z,14.02
2023-01-21T16:39:20.079Z,15.00
2023-01-21T16:42:31.181Z,14.73
2023-01-21T16:45:32.322Z,13.55
2023-01-21T16:48:34.671Z,12.82
2023-01-21T16:51:40.077Z,13.38
2023-01-21T16:54:53.361Z,15.55
2023-01-21T16:57:57.923Z,13.93
2023-01-21T17:01:08.888Z,13.57
2023-01-21T17:04:09.740Z,13.45
2023-01-21T17:07:25.648Z,13.68
2023-01-21T17:10:35.524Z,15.05
2023-01-21T17:13:43.724Z,15.30
2023-01-21T17:16:45.297Z,13.70
2023-01-21T17:19:46.211Z,12.32
2023-01-21T17:22:47.197Z,12.75
2023-01-21T17:26:21.721Z,13.27
2023-01-21T17:29:29.448Z,12.85
2023-01-21T17:32:34.423Z,13.10
2023-01-21T17:35:35.759Z,12.15
2023-01-21T17:38:44.197Z,12.27
2023-01-21T17:41:46.678Z,11.57
2023-01-21T17:44:54.713Z,13.13
2023-01-21T17:48:14.589Z,13.43
2023-01-21T17:51:28.663Z,13.40
2023-01-21T17:54:29.998Z,13.30
2023-01-21T17:57:35.869Z,16.63
2023-01-21T18:00:39.352Z,28.75
2023-01-21T18:03:40.403Z,26.38
2023-01-21T18:06:41.279Z,17.83
2023-01-21T18:09:43.172Z,16.73
2023-01-21T18:12:44.228Z,12.50
2023-01-21T18:15:46.635Z,12.27
2023-01-21T18:18:49.537Z,10.18
2023-01-21T18:21:50.310Z,11.07
2023-01-21T18:24:51.224Z,11.07
2023-01-21T18:27:55.020Z,11.43
2023-01-21T18:30:57.802Z,13.68
2023-01-21T18:33:58.660Z,13.85
2023-01-21T18:36:59.604Z,12.07
2023-01-21T18:40:00.493Z,11.18
2023-01-21T18:43:01.632Z,14.82
2023-01-21T18:46:02.686Z,19.95
2023-01-21T18:49:05.919Z,24.15
2023-01-21T18:52:09.472Z,19.02
2023-01-21T18:55:13.295Z,13.18
2023-01-21T18:58:14.796Z,9.05
2023-01-21T19:01:23.029Z,8.98
2023-01-21T19:04:24.773Z,9.27
2023-01-21T19:07:26.175Z,8.23
2023-01-21T19:10:27.446Z,8.45
2023-01-21T19:13:28.285Z,8.80
2023-01-21T19:16:29.118Z,33.25
2023-01-21T19:19:30.592Z,10.45
2023-01-21T19:22:31.769Z,19.27
2023-01-21T19:25:32.693Z,18.92
2023-01-21T19:28:34.817Z,10.43
2023-01-21T19:31:35.830Z,7.38
2023-01-21T19:34:36.860Z,7.40
2023-01-21T19:37:40.328Z,8.45
2023-01-21T19:40:41.677Z,8.25
2023-01-21T19:43:42.707Z,6.78
2023-01-21T19:46:43.972Z,7.65
2023-01-21T19:49:46.069Z,8.35
2023-01-21T19:52:50.433Z,7.45
2023-01-21T19:55:51.577Z,8.02
2023-01-21T19:58:52.409Z,7.90
2023-01-21T20:01:53.401Z,8.82
2023-01-21T20:04:54.113Z,8.65
2023-01-21T20:07:55.852Z,8.90
2023-01-21T20:10:56.993Z,8.13
2023-01-21T20:13:58.139Z,8.63
2023-01-21T20:16:59.027Z,8.07
2023-01-21T20:20:00.119Z,8.13
2023-01-21T20:23:01.964Z,8.32
2023-01-21T20:26:09.362Z,8.38
2023-01-21T20:29:14.129Z,7.97
2023-01-21T20:32:15.056Z,9.40
2023-01-21T20:35:18.677Z,8.27
2023-01-21T20:38:34.311Z,8.75
2023-01-21T20:41:35.311Z,8.32
2023-01-21T20:44:36.563Z,8.50
2023-01-21T20:47:38.516Z,8.10
2023-01-21T20:50:39.966Z,8.73
2023-01-21T20:53:40.962Z,8.75
2023-01-21T20:56:42.080Z,7.43
2023-01-21T20:59:42.859Z,8.27
2023-01-21T21:02:44.425Z,8.35
2023-01-21T21:05:49.431Z,8.23
2023-01-21T21:08:51.168Z,7.88
2023-01-21T21:11:51.955Z,8.65
2023-01-21T21:14:52.765Z,8.52
2023-01-21T21:17:53.581Z,7.63
2023-01-21T21:20:54.278Z,7.63
2023-01-21T21:23:55.075Z,8.90
2023-01-21T21:26:56.267Z,8.20
2023-01-21T21:29:59.391Z,7.63
2023-01-21T21:33:01.395Z,8.75
2023-01-21T21:36:02.432Z,8.23
2023-01-21T21:39:03.957Z,8.88
2023-01-21T21:42:23.406Z,8.00
2023-01-21T21:45:24.607Z,9.35
2023-01-21T21:48:45.160Z,8.93
2023-01-21T21:51:46.337Z,8.00
2023-01-21T21:54:47.167Z,8.70
2023-01-21T21:57:48.080Z,9.23
2023-01-21T22:00:54.178Z,8.73
2023-01-21T22:03:55.379Z,8.82
2023-01-21T22:06:56.320Z,7.55
2023-01-21T22:09:57.653Z,10.00
2023-01-21T22:12:58.459Z,9.18
2023-01-21T22:16:01.225Z,9.32
2023-01-21T22:19:02.427Z,10.30
2023-01-21T22:22:03.181Z,10.07
2023-01-21T22:25:04.314Z,8.23
2023-01-21T22:28:05.245Z,9.27
2023-01-21T22:31:12.252Z,8.55
2023-01-21T22:34:13.391Z,7.00
2023-01-21T22:37:14.583Z,8.48
2023-01-21T22:40:15.894Z,9.30
2023-01-21T22:43:21.003Z,9.20
2023-01-21T22:46:30.249Z,9.15
2023-01-21T22:49:31.340Z,9.77
2023-01-21T22:52:32.236Z,8.75
2023-01-21T22:55:33.229Z,9.25
2023-01-21T22:58:35.679Z,9.65
2023-01-21T23:01:36.751Z,9.10
2023-01-21T23:04:38.345Z,8.60
2023-01-21T23:07:39.262Z,8.98
2023-01-21T23:10:42.682Z,8.80
2023-01-21T23:13:44.646Z,8.45
2023-01-21T23:16:46.922Z,8.25
2023-01-21T23:19:47.640Z,8.45
2023-01-21T23:22:48.506Z,8.10
2023-01-21T23:25:49.720Z,8.55
2023-01-21T23:28:55.945Z,9.10
2023-01-21T23:31:58.231Z,8.55
2023-01-21T23:34:59.204Z,8.60
2023-01-21T23:38:00.937Z,9.00
2023-01-21T23:41:09.229Z,9.13
2023-01-21T23:44:10.889Z,8.75
2023-01-21T23:47:11.741Z,9.52
2023-01-21T23:50:13.995Z,8.48
2023-01-21T23:53:15.263Z,8.18
2023-01-21T23:56:23.871Z,8.65
2023-01-21T23:59:25.377Z,8.13
